createdAt,value
2023-02-17T00:01:28.286Z,10.12
2023-02-17T00:03:56.533Z,10.17
2023-02-17T00:06:26.452Z,10.16
2023-02-17T00:08:56.371Z,10.23
2023-02-17T00:11:24.924Z,10.18
2023-02-17T00:13:56.133Z,10.24
2023-02-17T00:16:31.054Z,10.30
2023-02-17T00:19:01.561Z,10.37
2023-02-17T00:21:31.778Z,10.36
2023-02-17T00:24:01.600Z,10.37
2023-02-17T00:26:29.739Z,10.39
2023-02-17T00:28:59.775Z,10.34
2023-02-17T00:31:27.930Z,10.37
2023-02-17T00:33:57.321Z,10.37
2023-02-17T00:36:26.901Z,10.46
2023-02-17T00:38:56.729Z,10.39
2023-02-17T00:41:27.792Z,10.38
2023-02-17T00:43:56.218Z,10.40
2023-02-17T00:46:24.869Z,10.39
2023-02-17T00:48:53.745Z,10.44
2023-02-17T00:51:22.043Z,10.38
2023-02-17T00:53:50.748Z,10.33
2023-02-17T00:56:19.037Z,10.36
2023-02-17T00:58:48.313Z,10.31
2023-02-17T01:01:16.415Z,10.30
2023-02-17T01:03:44.648Z,10.31
2023-02-17T01:06:29.866Z,10.27
2023-02-17T01:08:57.852Z,10.33
2023-02-17T01:11:28.471Z,10.28
2023-02-17T01:13:58.489Z,10.28
2023-02-17T01:16:28.744Z,10.33
2023-02-17T01:18:57.352Z,10.30
2023-02-17T01:21:28.024Z,10.36
2023-02-17T01:23:58.140Z,10.35
2023-02-17T01:26:28.708Z,10.32
2023-02-17T01:28:58.171Z,10.35
2023-02-17T01:31:28.398Z,10.33
2023-02-17T01:33:58.531Z,10.38
2023-02-17T01:36:27.213Z,10.40
2023-02-17T01:38:55.179Z,10.38
2023-02-17T01:41:30.144Z,10.43
2023-02-17T01:44:10.103Z,10.44
2023-02-17T01:46:39.664Z,10.39
2023-02-17T01:49:16.529Z,10.46
2023-02-17T01:51:48.467Z,10.49
2023-02-17T01:54:20.150Z,10.46
2023-02-17T01:56:51.555Z,10.49
2023-02-17T01:59:22.907Z,10.51
2023-02-17T02:01:56.142Z,10.43
2023-02-17T02:04:29.884Z,10.41
2023-02-17T02:06:58.446Z,10.45
2023-02-17T02:09:33.239Z,10.46
2023-02-17T02:12:01.342Z,10.37
2023-02-17T02:14:30.891Z,10.39
2023-02-17T02:17:10.415Z,10.38
2023-02-17T02:20:20.584Z,10.40
2023-02-17T02:23:21.412Z,10.34
2023-02-17T02:26:20.161Z,10.34
2023-02-17T02:29:11.255Z,10.38
2023-02-17T02:31:48.702Z,10.30
2023-02-17T02:34:22.733Z,10.27
2023-02-17T02:36:57.968Z,10.28
2023-02-17T02:39:31.312Z,10.30
2023-02-17T02:42:03.480Z,10.36
2023-02-17T02:44:31.576Z,10.26
2023-02-17T02:47:00.898Z,10.29
2023-02-17T02:49:32.821Z,10.29
2023-02-17T02:52:07.219Z,10.29
2023-02-17T02:54:47.107Z,10.32
2023-02-17T02:57:27.439Z,10.29
2023-02-17T03:00:10.770Z,10.32
2023-02-17T03:02:46.040Z,10.26
2023-02-17T03:05:21.498Z,10.25
2023-02-17T03:07:55.798Z,10.28
2023-02-17T03:10:23.756Z,10.29
2023-02-17T03:12:51.998Z,10.32
2023-02-17T03:15:26.709Z,10.30
2023-02-17T03:17:58.436Z,10.22
2023-02-17T03:20:31.057Z,10.23
2023-02-17T03:22:59.206Z,10.26
2023-02-17T03:25:27.244Z,10.19
2023-02-17T03:27:55.229Z,10.27
2023-02-17T03:30:23.184Z,10.25
2023-02-17T03:32:51.252Z,10.32
2023-02-17T03:35:19.381Z,10.26
2023-02-17T03:37:49.000Z,10.28
2023-02-17T03:40:17.291Z,10.29
2023-02-17T03:42:45.217Z,10.32
2023-02-17T03:45:13.097Z,10.26
2023-02-17T03:47:41.440Z,10.27
2023-02-17T03:50:10.136Z,10.27
2023-02-17T03:52:38.487Z,10.32
2023-02-17T03:55:10.767Z,10.29
2023-02-17T03:57:38.804Z,10.27
2023-02-17T04:00:09.445Z,10.31
2023-02-17T04:02:37.759Z,10.28
2023-02-17T04:05:06.266Z,10.30
2023-02-17T04:07:34.719Z,10.28
2023-02-17T04:10:05.170Z,10.27
2023-02-17T04:12:35.613Z,10.33
2023-02-17T04:15:03.732Z,10.26
2023-02-17T04:17:32.020Z,10.30
2023-02-17T04:20:00.253Z,10.29
2023-02-17T04:22:28.220Z,10.34
2023-02-17T04:24:56.112Z,10.27
2023-02-17T04:27:24.347Z,10.28
2023-02-17T04:29:54.621Z,10.36
2023-02-17T04:32:22.678Z,10.30
2023-02-17T04:34:50.735Z,10.26
2023-02-17T04:37:19.043Z,10.27
2023-02-17T04:39:47.265Z,10.18
2023-02-17T04:42:15.230Z,10.22
2023-02-17T04:44:43.447Z,10.19
2023-02-17T04:47:13.625Z,10.30
2023-02-17T04:49:41.633Z,10.16
2023-02-17T04:52:10.036Z,10.25
2023-02-17T04:54:38.308Z,10.20
2023-02-17T04:57:06.199Z,10.18
2023-02-17T04:59:34.049Z,10.19
2023-02-17T05:02:02.056Z,10.19
2023-02-17T05:04:31.969Z,10.19
2023-02-17T05:07:02.237Z,10.17
2023-02-17T05:09:30.389Z,10.18
2023-02-17T05:11:59.222Z,10.14
2023-02-17T05:14:28.089Z,10.17
2023-02-17T05:16:56.068Z,10.15
2023-02-17T05:19:24.161Z,10.18
2023-02-17T05:21:53.858Z,10.21
2023-02-17T05:24:21.811Z,10.17
2023-02-17T05:26:49.886Z,10.15
2023-02-17T05:29:18.131Z,10.09
2023-02-17T05:31:46.243Z,10.08
2023-02-17T05:34:14.430Z,10.09
2023-02-17T05:36:42.796Z,10.04
2023-02-17T05:39:12.804Z,10.02
2023-02-17T05:41:40.967Z,10.00
2023-02-17T05:44:09.001Z,9.97
2023-02-17T05:46:37.008Z,9.96
2023-02-17T05:49:04.973Z,9.95
2023-02-17T05:51:32.984Z,9.97
2023-02-17T05:54:03.378Z,9.91
2023-02-17T05:56:32.965Z,9.88
2023-02-17T05:59:01.260Z,9.99
2023-02-17T06:01:29.708Z,9.93
2023-02-17T06:03:57.627Z,9.90
2023-02-17T06:06:25.551Z,9.90
2023-02-17T06:08:53.583Z,9.90
2023-02-17T06:11:21.737Z,9.94
2023-02-17T06:13:51.171Z,9.95
2023-02-17T06:16:19.383Z,9.97
2023-02-17T06:18:47.546Z,9.94
2023-02-17T06:21:15.552Z,9.90
2023-02-17T06:23:43.593Z,9.95
2023-02-17T06:26:11.898Z,9.94
2023-02-17T06:28:39.856Z,9.95
2023-02-17T06:31:09.724Z,9.95
2023-02-17T06:33:37.975Z,9.91
2023-02-17T06:36:07.083Z,9.96
2023-02-17T06:38:35.677Z,10.01
2023-02-17T06:41:03.767Z,10.03
2023-02-17T06:43:31.737Z,10.02
2023-02-17T06:46:00.008Z,10.00
2023-02-17T06:48:29.509Z,9.99
2023-02-17T06:50:57.347Z,10.07
2023-02-17T06:53:25.534Z,10.03
2023-02-17T06:55:53.797Z,10.14
2023-02-17T06:58:21.736Z,10.25
2023-02-17T07:00:50.054Z,10.18
2023-02-17T07:03:18.106Z,10.17
2023-02-17T07:05:47.469Z,10.18
2023-02-17T07:08:16.190Z,10.20
2023-02-17T07:10:44.593Z,10.24
2023-02-17T07:13:12.537Z,10.23
2023-02-17T07:15:40.529Z,10.27
2023-02-17T07:18:08.526Z,10.37
2023-02-17T07:20:38.232Z,10.37
2023-02-17T07:23:08.785Z,10.31
2023-02-17T07:25:36.928Z,10.43
2023-02-17T07:28:04.930Z,10.41
2023-02-17T07:30:33.390Z,10.41
2023-02-17T07:33:01.285Z,10.38
2023-02-17T07:35:29.227Z,10.37
2023-02-17T07:37:58.543Z,10.39
2023-02-17T07:40:28.882Z,10.41
2023-02-17T07:42:58.673Z,10.37
2023-02-17T07:45:26.576Z,10.40
2023-02-17T07:47:54.775Z,10.41
2023-02-17T07:50:23.465Z,10.47
2023-02-17T07:52:52.393Z,10.56
2023-02-17T07:55:20.486Z,10.55
2023-02-17T07:57:49.917Z,10.59
2023-02-17T08:00:20.131Z,10.53
2023-02-17T08:02:48.121Z,10.57
2023-02-17T08:05:16.212Z,10.60
2023-02-17T08:07:44.158Z,10.57
2023-02-17T08:10:31.387Z,10.66
2023-02-17T08:13:19.382Z,10.67
2023-02-17T08:15:47.805Z,10.70
2023-02-17T08:18:16.003Z,10.73
2023-02-17T08:20:44.567Z,10.80
2023-02-17T08:23:13.147Z,10.85
2023-02-17T08:25:41.471Z,10.91
2023-02-17T08:28:13.559Z,10.96
2023-02-17T08:30:42.261Z,11.02
2023-02-17T08:33:10.815Z,11.01
2023-02-17T08:35:39.304Z,11.05
2023-02-17T08:38:07.592Z,10.98
2023-02-17T08:40:36.038Z,11.03
2023-02-17T08:43:04.439Z,11.01
2023-02-17T08:45:34.523Z,11.03
2023-02-17T08:48:02.532Z,11.04
2023-02-17T08:50:31.633Z,11.07
2023-02-17T08:52:59.856Z,11.01
2023-02-17T08:55:30.455Z,11.12
2023-02-17T08:58:01.930Z,11.14
2023-02-17T09:00:30.419Z,11.16
2023-02-17T09:03:00.029Z,11.15
2023-02-17T09:05:28.078Z,11.25
2023-02-17T09:07:56.297Z,11.24
2023-02-17T09:10:24.673Z,11.33
2023-02-17T09:12:53.183Z,11.24
2023-02-17T09:15:21.652Z,11.25
2023-02-17T09:17:50.162Z,11.29
2023-02-17T09:20:25.089Z,11.23
2023-02-17T09:22:54.130Z,11.28
2023-02-17T09:25:22.496Z,11.28
2023-02-17T09:27:50.850Z,11.23
2023-02-17T09:30:20.392Z,11.22
2023-02-17T09:32:48.571Z,11.25
2023-02-17T09:35:19.644Z,11.23
2023-02-17T09:37:48.535Z,11.28
2023-02-17T09:40:20.179Z,11.40
2023-02-17T09:42:49.777Z,11.38
2023-02-17T09:45:23.610Z,11.50
2023-02-17T09:47:54.847Z,11.57
2023-02-17T09:50:29.949Z,11.60
2023-02-17T09:53:03.913Z,11.68
2023-02-17T09:55:39.240Z,11.71
2023-02-17T09:58:13.395Z,11.82
2023-02-17T10:00:46.637Z,11.87
2023-02-17T10:03:19.311Z,11.90
2023-02-17T10:05:54.559Z,11.85
2023-02-17T10:08:28.145Z,12.00
2023-02-17T10:11:01.853Z,12.03
2023-02-17T10:13:34.778Z,12.15
2023-02-17T10:16:07.096Z,12.19
2023-02-17T10:18:40.963Z,12.25
2023-02-17T10:21:15.633Z,12.32
2023-02-17T10:23:46.002Z,12.38
2023-02-17T10:26:23.925Z,12.46
2023-02-17T10:28:54.020Z,12.44
2023-02-17T10:31:38.028Z,12.46
2023-02-17T10:34:15.393Z,12.56
2023-02-17T10:36:54.611Z,12.54
2023-02-17T10:39:36.273Z,12.63
2023-02-17T10:42:05.304Z,12.73
2023-02-17T10:44:37.900Z,12.89
2023-02-17T10:47:06.881Z,12.96
2023-02-17T10:49:38.948Z,13.06
2023-02-17T10:52:16.071Z,13.04
2023-02-17T10:54:49.866Z,12.95
2023-02-17T10:57:20.497Z,12.92
2023-02-17T10:59:50.478Z,12.86
2023-02-17T11:02:21.827Z,12.89
2023-02-17T11:04:51.439Z,12.93
2023-02-17T11:07:33.974Z,13.11
2023-02-17T11:10:03.925Z,13.23
2023-02-17T11:12:40.160Z,13.51
2023-02-17T11:15:18.283Z,13.66
2023-02-17T11:17:47.397Z,13.66
2023-02-17T11:20:42.243Z,13.54
2023-02-17T11:23:25.702Z,13.38
2023-02-17T11:25:59.928Z,13.27
2023-02-17T11:28:28.586Z,13.19
2023-02-17T11:30:59.750Z,13.00
2023-02-17T11:33:33.167Z,12.93
2023-02-17T11:36:01.560Z,12.82
2023-02-17T11:38:42.314Z,12.78
2023-02-17T11:41:11.248Z,12.74
2023-02-17T11:43:40.877Z,12.68
2023-02-17T11:46:25.509Z,12.57
2023-02-17T11:49:25.234Z,12.50
2023-02-17T11:52:03.120Z,12.44
2023-02-17T11:54:53.068Z,12.36
2023-02-17T11:57:35.118Z,12.28
2023-02-17T12:00:15.110Z,12.21
2023-02-17T12:03:05.113Z,12.14
2023-02-17T12:05:44.662Z,12.13
2023-02-17T12:08:21.631Z,12.09
2023-02-17T12:11:05.321Z,12.06
2023-02-17T12:13:44.271Z,12.03
2023-02-17T12:16:25.380Z,12.02
2023-02-17T12:19:03.848Z,12.02
2023-02-17T12:21:51.639Z,12.03
2023-02-17T12:24:38.325Z,12.02
2023-02-17T12:27:24.630Z,11.84
2023-02-17T12:30:11.257Z,11.78
2023-02-17T12:32:54.723Z,11.76
2023-02-17T12:35:26.577Z,11.68
2023-02-17T12:37:57.929Z,11.66
2023-02-17T12:40:35.494Z,11.62
2023-02-17T12:43:16.199Z,11.62
2023-02-17T12:45:49.329Z,11.60
2023-02-17T12:48:24.290Z,11.65
2023-02-17T12:50:57.429Z,11.67
2023-02-17T12:53:35.806Z,11.68
2023-02-17T12:56:05.853Z,11.75
2023-02-17T12:58:39.585Z,11.76
2023-02-17T13:01:14.830Z,11.78
2023-02-17T13:03:43.088Z,11.81
2023-02-17T13:06:23.655Z,11.87
2023-02-17T13:08:56.204Z,11.89
2023-02-17T13:11:29.604Z,11.94
2023-02-17T13:14:10.763Z,11.94
2023-02-17T13:16:44.005Z,11.96
2023-02-17T13:19:12.265Z,11.98
2023-02-17T13:21:53.693Z,12.06
2023-02-17T13:24:34.490Z,12.13
2023-02-17T13:27:13.012Z,12.15
2023-02-17T13:29:42.327Z,12.18
2023-02-17T13:32:14.087Z,12.20
2023-02-17T13:34:44.360Z,12.25
2023-02-17T13:37:26.599Z,12.31
2023-02-17T13:39:54.979Z,12.38
2023-02-17T13:42:38.866Z,12.39
2023-02-17T13:45:19.298Z,12.45
2023-02-17T13:47:49.058Z,12.53
2023-02-17T13:50:35.216Z,12.56
2023-02-17T13:53:07.947Z,12.57
2023-02-17T13:55:36.535Z,12.57
2023-02-17T13:58:04.522Z,12.59
2023-02-17T14:00:34.113Z,12.63
2023-02-17T14:03:14.490Z,12.68
2023-02-17T14:05:45.942Z,12.69
2023-02-17T14:08:18.450Z,12.68
2023-02-17T14:10:47.744Z,12.71
2023-02-17T14:13:16.046Z,12.72
2023-02-17T14:15:54.015Z,12.77
2023-02-17T14:18:43.177Z,12.79
2023-02-17T14:21:15.851Z,12.75
2023-02-17T14:23:46.705Z,12.77
2023-02-17T14:26:27.831Z,12.73
2023-02-17T14:28:57.578Z,12.81
2023-02-17T14:31:28.232Z,12.79
2023-02-17T14:33:59.674Z,12.86
2023-02-17T14:36:43.477Z,12.82
2023-02-17T14:39:16.100Z,12.94
2023-02-17T14:41:45.149Z,12.98
2023-02-17T14:44:13.181Z,13.07
2023-02-17T14:46:42.714Z,13.08
2023-02-17T14:49:10.768Z,13.11
2023-02-17T14:51:39.173Z,13.20
2023-02-17T14:54:15.495Z,13.32
2023-02-17T14:56:47.918Z,13.54
2023-02-17T14:59:16.027Z,13.65
2023-02-17T15:01:45.405Z,13.76
2023-02-17T15:04:14.036Z,13.97
2023-02-17T15:06:47.205Z,14.04
2023-02-17T15:09:18.551Z,13.97
2023-02-17T15:12:00.700Z,13.91
2023-02-17T15:14:29.282Z,13.85
2023-02-17T15:16:58.767Z,13.84
2023-02-17T15:19:26.822Z,13.84
2023-02-17T15:21:54.791Z,13.81
2023-02-17T15:24:29.851Z,13.81
2023-02-17T15:26:58.554Z,13.81
2023-02-17T15:29:28.459Z,13.78
2023-02-17T15:32:00.332Z,13.77
2023-02-17T15:34:32.239Z,13.72
2023-02-17T15:37:00.354Z,13.74
2023-02-17T15:39:28.635Z,13.68
2023-02-17T15:42:01.435Z,13.71
2023-02-17T15:44:36.528Z,13.70
2023-02-17T15:47:06.063Z,13.61
2023-02-17T15:49:34.166Z,13.57
2023-02-17T15:52:02.418Z,13.52
2023-02-17T15:54:30.749Z,13.42
2023-02-17T15:56:59.298Z,13.37
2023-02-17T15:59:28.371Z,13.37
2023-02-17T16:01:56.900Z,13.34
2023-02-17T16:04:26.640Z,13.29
2023-02-17T16:06:54.622Z,13.27
2023-02-17T16:09:25.641Z,13.20
2023-02-17T16:12:01.599Z,13.15
2023-02-17T16:14:40.693Z,13.11
2023-02-17T16:17:23.366Z,13.06
2023-02-17T16:19:56.909Z,13.05
2023-02-17T16:22:25.142Z,12.99
2023-02-17T16:24:53.089Z,12.93
2023-02-17T16:27:50.909Z,12.87
2023-02-17T16:30:39.326Z,12.82
2023-02-17T16:33:12.986Z,12.80
2023-02-17T16:35:43.606Z,12.74
2023-02-17T16:38:16.791Z,12.76
2023-02-17T16:40:48.350Z,12.75
2023-02-17T16:43:17.705Z,12.82
2023-02-17T16:45:54.008Z,12.76
2023-02-17T16:48:23.580Z,12.73
2023-02-17T16:50:53.555Z,12.68
2023-02-17T16:53:21.834Z,12.66
2023-02-17T16:55:51.577Z,12.64
2023-02-17T16:58:23.004Z,12.62
2023-02-17T17:00:55.233Z,12.61
2023-02-17T17:03:27.265Z,12.60
2023-02-17T17:05:56.705Z,12.58
2023-02-17T17:08:24.918Z,12.58
2023-02-17T17:10:53.107Z,12.63
2023-02-17T17:13:21.462Z,12.63
2023-02-17T17:15:50.004Z,12.56
2023-02-17T17:18:23.840Z,12.58
2023-02-17T17:20:51.882Z,12.66
2023-02-17T17:23:21.320Z,12.70
2023-02-17T17:25:49.487Z,12.65
2023-02-17T17:28:20.035Z,12.58
2023-02-17T17:30:48.417Z,12.58
2023-02-17T17:33:16.538Z,12.56
2023-02-17T17:35:44.631Z,12.54
2023-02-17T17:38:15.908Z,12.60
2023-02-17T17:40:52.028Z,12.59
2023-02-17T17:43:23.466Z,12.54
2023-02-17T17:45:52.731Z,12.61
2023-02-17T17:48:21.010Z,12.54
2023-02-17T17:50:50.191Z,12.55
2023-02-17T17:53:18.370Z,12.59
2023-02-17T17:55:48.466Z,12.55
2023-02-17T17:58:17.269Z,12.53
2023-02-17T18:00:45.389Z,12.55
2023-02-17T18:03:13.464Z,12.51
2023-02-17T18:05:41.724Z,12.55
2023-02-17T18:08:11.120Z,12.50
2023-02-17T18:10:40.400Z,12.57
2023-02-17T18:13:12.995Z,12.63
2023-02-17T18:15:42.649Z,12.60
2023-02-17T18:18:11.899Z,12.53
2023-02-17T18:20:40.733Z,12.58
2023-02-17T18:23:09.059Z,12.53
2023-02-17T18:25:37.100Z,12.63
2023-02-17T18:28:05.200Z,12.59
2023-02-17T18:30:34.809Z,12.58
2023-02-17T18:33:03.085Z,12.62
2023-02-17T18:35:31.063Z,12.65
2023-02-17T18:37:59.151Z,12.65
2023-02-17T18:40:29.150Z,12.68
2023-02-17T18:42:57.438Z,12.73
2023-02-17T18:45:31.778Z,12.72
2023-02-17T18:48:01.403Z,12.82
2023-02-17T18:50:33.018Z,12.82
2023-02-17T18:53:03.023Z,12.82
2023-02-17T18:55:33.801Z,12.78
2023-02-17T18:58:01.747Z,12.71
2023-02-17T19:00:30.219Z,12.71
2023-02-17T19:02:58.303Z,12.67
2023-02-17T19:05:28.767Z,12.68
2023-02-17T19:07:57.431Z,12.55
2023-02-17T19:10:25.517Z,12.58
2023-02-17T19:12:53.812Z,12.60
2023-02-17T19:15:22.047Z,12.62
2023-02-17T19:17:51.299Z,12.59
2023-02-17T19:20:19.539Z,12.53
2023-02-17T19:22:49.393Z,12.54
2023-02-17T19:25:17.601Z,12.48
2023-02-17T19:27:45.730Z,12.44
2023-02-17T19:30:14.777Z,12.38
2023-02-17T19:32:42.883Z,12.29
2023-02-17T19:35:11.792Z,12.21
2023-02-17T19:37:40.276Z,12.14
2023-02-17T19:40:10.695Z,12.08
2023-02-17T19:42:40.295Z,12.08
2023-02-17T19:45:08.649Z,12.04
2023-02-17T19:47:36.662Z,11.98
2023-02-17T19:50:04.978Z,11.94
2023-02-17T19:52:33.199Z,11.97
2023-02-17T19:55:01.478Z,12.02
2023-02-17T19:57:31.091Z,12.07
2023-02-17T19:59:59.053Z,12.08
2023-02-17T20:02:28.037Z,12.10
2023-02-17T20:04:56.074Z,12.06
2023-02-17T20:07:24.053Z,12.03
2023-02-17T20:09:52.131Z,11.99
2023-02-17T20:12:20.114Z,12.02
2023-02-17T20:14:49.762Z,11.99
2023-02-17T20:17:17.907Z,11.94
2023-02-17T20:19:46.112Z,11.99
2023-02-17T20:22:14.182Z,11.95
2023-02-17T20:24:42.729Z,11.98
2023-02-17T20:27:11.885Z,12.07
2023-02-17T20:29:40.117Z,11.98
2023-02-17T20:32:09.802Z,11.99
2023-02-17T20:34:41.255Z,11.99
2023-02-17T20:37:10.384Z,11.95
2023-02-17T20:39:42.193Z,12.01
2023-02-17T20:42:10.703Z,12.02
2023-02-17T20:44:38.862Z,12.07
2023-02-17T20:47:07.742Z,12.08
2023-02-17T20:49:37.595Z,12.12
2023-02-17T20:52:07.182Z,12.11
2023-02-17T20:54:35.856Z,12.09
2023-02-17T20:57:05.088Z,12.10
2023-02-17T20:59:34.604Z,12.12
2023-02-17T21:02:02.713Z,12.04
2023-02-17T21:04:30.763Z,12.09
2023-02-17T21:07:01.451Z,12.10
2023-02-17T21:09:29.708Z,12.05
2023-02-17T21:11:57.753Z,12.12
2023-02-17T21:14:25.689Z,12.11
2023-02-17T21:16:53.795Z,12.09
2023-02-17T21:19:22.135Z,12.08
2023-02-17T21:21:50.084Z,12.04
2023-02-17T21:24:19.779Z,12.10
2023-02-17T21:26:47.827Z,12.11
2023-02-17T21:29:16.106Z,12.10
2023-02-17T21:31:44.122Z,12.12
2023-02-17T21:34:12.106Z,12.05
2023-02-17T21:36:40.336Z,12.08
2023-02-17T21:39:08.426Z,12.08
2023-02-17T21:41:37.785Z,12.06
2023-02-17T21:44:23.747Z,12.05
2023-02-17T21:46:53.695Z,12.07
2023-02-17T21:49:23.392Z,12.06
2023-02-17T21:51:52.256Z,12.07
2023-02-17T21:54:20.219Z,12.15
2023-02-17T21:56:49.636Z,12.08
2023-02-17T21:59:18.660Z,12.09
2023-02-17T22:01:46.596Z,12.10
2023-02-17T22:04:14.920Z,12.17
2023-02-17T22:06:43.376Z,12.06
2023-02-17T22:09:14.788Z,12.14
2023-02-17T22:11:44.041Z,12.18
2023-02-17T22:14:16.038Z,12.15
2023-02-17T22:16:44.449Z,12.17
2023-02-17T22:19:15.971Z,12.20
2023-02-17T22:21:44.434Z,12.20
2023-02-17T22:24:13.160Z,12.16
2023-02-17T22:26:41.216Z,12.23
2023-02-17T22:29:09.183Z,12.18
2023-02-17T22:31:38.654Z,12.17
2023-02-17T22:34:10.004Z,12.13
2023-02-17T22:36:38.486Z,12.16
2023-02-17T22:39:08.747Z,12.14
2023-02-17T22:41:38.847Z,12.08
2023-02-17T22:44:07.167Z,12.14
2023-02-17T22:46:36.048Z,12.12
2023-02-17T22:49:07.139Z,12.16
2023-02-17T22:51:38.967Z,12.11
2023-02-17T22:54:08.432Z,12.05
2023-02-17T22:56:37.120Z,12.09
2023-02-17T22:59:05.897Z,12.08
2023-02-17T23:01:35.787Z,12.06
2023-02-17T23:04:06.588Z,12.04
2023-02-17T23:06:37.329Z,12.06
2023-02-17T23:09:06.482Z,12.10
2023-02-17T23:11:51.434Z,12.13
2023-02-17T23:14:21.805Z,12.18
2023-02-17T23:16:50.470Z,12.26
2023-02-17T23:19:22.339Z,12.16
2023-02-17T23:21:52.300Z,12.15
2023-02-17T23:24:21.386Z,12.14
2023-02-17T23:26:50.073Z,12.07
2023-02-17T23:29:19.219Z,12.05
2023-02-17T23:31:47.221Z,12.04
2023-02-17T23:34:16.395Z,12.04
2023-02-17T23:36:46.640Z,12.07
2023-02-17T23:39:15.081Z,12.05
2023-02-17T23:41:43.101Z,12.10
2023-02-17T23:44:13.672Z,12.11
2023-02-17T23:46:43.202Z,12.17
2023-02-17T23:49:14.055Z,12.10
2023-02-17T23:51:42.567Z,12.14
2023-02-17T23:54:11.878Z,12.11
2023-02-17T23:56:40.313Z,12.12
2023-02-17T23:59:08.609Z,12.12
